createdAt,value
2017-08-07T00:00:31.752Z,90.20
2017-08-07T00:02:59.346Z,90.30
2017-08-07T00:05:26.976Z,90.10
2017-08-07T00:07:54.572Z,90.10
2017-08-07T00:10:23.141Z,90.10
2017-08-07T00:12:50.711Z,89.50
2017-08-07T00:15:18.348Z,89.50
2017-08-07T00:17:45.877Z,89.20
2017-08-07T00:20:14.225Z,89.40
2017-08-07T00:22:41.789Z,89.30
2017-08-07T00:25:09.369Z,89.20
2017-08-07T00:27:36.924Z,88.80
2017-08-07T00:30:05.050Z,88.80
2017-08-07T00:32:32.623Z,88.60
2017-08-07T00:35:00.274Z,88.40
2017-08-07T00:37:28.743Z,88.20
2017-08-07T00:39:57.012Z,88.20
2017-08-07T00:42:24.990Z,88.50
2017-08-07T00:44:54.074Z,88.90
2017-08-07T00:47:21.741Z,88.80
2017-08-07T00:49:50.491Z,89.00
2017-08-07T00:52:20.047Z,89.00
2017-08-07T00:54:47.650Z,88.90
2017-08-07T00:57:15.233Z,88.80
2017-08-07T00:59:42.922Z,89.20
2017-08-07T01:02:10.537Z,89.10
2017-08-07T01:04:38.652Z,89.30
2017-08-07T01:07:06.251Z,89.30
2017-08-07T01:09:33.848Z,89.50
2017-08-07T01:12:08.089Z,89.30
2017-08-07T01:14:35.772Z,89.20
2017-08-07T01:17:04.380Z,89.00
2017-08-07T01:19:32.031Z,89.30
2017-08-07T01:21:59.605Z,88.80
2017-08-07T01:24:27.188Z,88.90
2017-08-07T01:26:55.514Z,89.00
2017-08-07T01:29:23.121Z,89.00
2017-08-07T01:31:50.672Z,88.70
2017-08-07T01:34:19.002Z,88.10
2017-08-07T01:36:48.351Z,87.90
2017-08-07T01:39:16.075Z,87.80
2017-08-07T01:41:43.676Z,87.30
2017-08-07T01:44:11.839Z,87.30
2017-08-07T01:46:39.389Z,87.30
2017-08-07T01:49:06.969Z,87.30
2017-08-07T01:51:34.525Z,87.10
2017-08-07T01:54:02.106Z,87.10
2017-08-07T01:56:29.717Z,87.10
2017-08-07T01:58:58.137Z,87.20
2017-08-07T02:01:26.490Z,87.60
2017-08-07T02:03:54.932Z,87.50
2017-08-07T02:06:24.440Z,87.90
2017-08-07T02:08:51.994Z,87.80
2017-08-07T02:11:19.578Z,87.60
2017-08-07T02:13:47.142Z,87.90
2017-08-07T02:16:14.776Z,87.80
2017-08-07T02:18:43.077Z,88.30
2017-08-07T02:21:12.669Z,88.20
2017-08-07T02:23:40.755Z,88.00
2017-08-07T02:26:09.394Z,87.90
2017-08-07T02:28:36.989Z,88.30
2017-08-07T02:31:04.599Z,88.10
2017-08-07T02:33:32.160Z,87.70
2017-08-07T02:35:59.745Z,87.60
2017-08-07T02:38:27.359Z,87.20
2017-08-07T02:40:55.714Z,86.60
2017-08-07T02:43:23.318Z,86.60
2017-08-07T02:45:51.643Z,86.30
2017-08-07T02:48:19.487Z,86.20
2017-08-07T02:50:50.045Z,86.10
2017-08-07T02:53:17.667Z,86.10
2017-08-07T02:55:45.239Z,85.80
2017-08-07T02:58:12.836Z,85.80
2017-08-07T03:00:40.480Z,85.70
2017-08-07T03:03:08.149Z,85.70
2017-08-07T03:05:35.822Z,85.70
2017-08-07T03:08:03.441Z,85.80
2017-08-07T03:10:32.616Z,85.70
2017-08-07T03:13:00.214Z,85.40
2017-08-07T03:15:27.774Z,85.40
2017-08-07T03:17:55.330Z,85.50
2017-08-07T03:20:22.926Z,85.30
2017-08-07T03:22:51.264Z,85.50
2017-08-07T03:25:18.888Z,85.30
2017-08-07T03:27:46.508Z,85.60
2017-08-07T03:30:14.092Z,85.80
2017-08-07T03:32:42.433Z,85.90
2017-08-07T03:35:10.023Z,86.00
2017-08-07T03:37:39.186Z,86.10
2017-08-07T03:40:06.742Z,86.10
2017-08-07T03:42:34.353Z,86.20
2017-08-07T03:45:01.911Z,86.30
2017-08-07T03:47:30.033Z,85.90
2017-08-07T03:49:57.595Z,85.80
2017-08-07T03:52:25.177Z,85.90
2017-08-07T03:54:52.734Z,86.20
2017-08-07T03:57:21.051Z,86.90
2017-08-07T03:59:48.632Z,86.80
2017-08-07T04:02:16.209Z,87.00
2017-08-07T04:04:43.785Z,86.80
2017-08-07T04:07:11.354Z,86.80
2017-08-07T04:09:38.923Z,86.80
2017-08-07T04:12:07.250Z,87.00
2017-08-07T04:14:34.826Z,87.00
2017-08-07T04:17:02.384Z,87.70
2017-08-07T04:19:30.490Z,88.20
2017-08-07T04:21:58.080Z,88.20
2017-08-07T04:24:26.435Z,88.20
2017-08-07T04:26:54.004Z,87.90
2017-08-07T04:29:21.566Z,87.40
2017-08-07T04:31:49.104Z,86.60
2017-08-07T04:34:16.728Z,85.90
2017-08-07T04:36:45.065Z,84.90
2017-08-07T04:39:12.652Z,84.90
2017-08-07T04:41:40.521Z,84.20
2017-08-07T04:44:08.101Z,83.60
2017-08-07T04:46:35.641Z,82.60
2017-08-07T04:49:03.197Z,81.70
2017-08-07T04:51:30.777Z,81.60
2017-08-07T04:53:58.341Z,81.60
2017-08-07T04:56:25.938Z,81.60
2017-08-07T04:58:54.254Z,80.70
2017-08-07T05:01:21.833Z,80.00
2017-08-07T05:03:49.374Z,78.70
2017-08-07T05:06:16.973Z,78.90
2017-08-07T05:08:44.537Z,79.20
2017-08-07T05:11:12.112Z,79.20
2017-08-07T05:13:39.697Z,78.40
2017-08-07T05:16:07.299Z,78.50
2017-08-07T05:18:34.877Z,76.30
2017-08-07T05:21:02.425Z,75.50
2017-08-07T05:23:30.042Z,76.30
2017-08-07T05:25:57.613Z,74.90
2017-08-07T05:28:25.185Z,73.70
2017-08-07T05:30:52.728Z,73.50
2017-08-07T05:33:20.289Z,71.10
2017-08-07T05:35:47.852Z,68.90
2017-08-07T05:38:15.420Z,61.30
2017-08-07T05:40:43.307Z,54.90
2017-08-07T05:43:10.890Z,55.30
2017-08-07T05:45:38.455Z,56.60
2017-08-07T05:48:06.034Z,57.50
2017-08-07T05:50:34.360Z,61.30
2017-08-07T05:53:01.895Z,60.70
2017-08-07T05:55:29.475Z,62.40
2017-08-07T05:57:57.017Z,62.80
2017-08-07T06:00:25.391Z,65.10
2017-08-07T06:02:53.708Z,66.00
2017-08-07T06:05:21.292Z,65.90
2017-08-07T06:07:49.586Z,64.50
2017-08-07T06:10:17.153Z,64.50
2017-08-07T06:12:44.707Z,62.40
2017-08-07T06:15:12.292Z,59.80
2017-08-07T06:17:39.843Z,53.00
2017-08-07T06:20:07.420Z,41.80
2017-08-07T06:22:35.022Z,38.20
2017-08-07T06:25:02.595Z,32.80
2017-08-07T06:27:30.225Z,34.60
2017-08-07T06:29:57.771Z,38.20
2017-08-07T06:32:25.357Z,41.70
2017-08-07T06:34:52.957Z,37.80
2017-08-07T06:37:20.553Z,35.20
2017-08-07T06:39:48.131Z,39.60
2017-08-07T06:42:15.716Z,39.00
2017-08-07T06:44:43.266Z,40.10
2017-08-07T06:47:10.827Z,36.70
2017-08-07T06:52:15.213Z,29.60
2017-08-07T06:54:42.769Z,28.60
2017-08-07T06:57:10.298Z,28.90
2017-08-07T06:59:37.924Z,29.60
2017-08-07T07:02:05.490Z,32.60
2017-08-07T07:04:33.080Z,33.60
2017-08-07T07:07:00.640Z,35.10
2017-08-07T07:09:28.232Z,37.40
2017-08-07T07:11:55.842Z,38.40
2017-08-07T07:14:24.184Z,37.70
2017-08-07T07:16:51.726Z,37.70
2017-08-07T07:19:19.322Z,36.60
2017-08-07T07:21:46.876Z,39.40
2017-08-07T07:24:14.439Z,39.50
2017-08-07T07:26:42.528Z,37.50
2017-08-07T07:29:10.153Z,36.70
2017-08-07T07:31:37.681Z,37.20
2017-08-07T07:34:06.002Z,37.40
2017-08-07T07:36:33.589Z,37.40
2017-08-07T07:39:01.129Z,35.80
2017-08-07T07:41:28.690Z,35.00
2017-08-07T07:43:56.237Z,36.50
2017-08-07T07:46:24.584Z,38.60
2017-08-07T07:48:52.117Z,38.50
2017-08-07T07:51:19.762Z,39.40
2017-08-07T07:53:47.347Z,40.00
2017-08-07T07:56:14.905Z,39.50
2017-08-07T07:58:42.540Z,37.80
2017-08-07T08:01:10.878Z,40.60
2017-08-07T08:03:38.427Z,40.60
2017-08-07T08:06:06.001Z,38.90
2017-08-07T08:08:33.534Z,40.00
2017-08-07T08:11:01.097Z,39.70
2017-08-07T08:13:28.651Z,39.80
2017-08-07T08:15:56.173Z,39.20
2017-08-07T08:18:23.731Z,38.70
2017-08-07T08:20:51.273Z,37.50
2017-08-07T08:23:18.844Z,37.00
2017-08-07T08:25:46.403Z,35.40
2017-08-07T08:28:13.965Z,36.90
2017-08-07T08:30:41.522Z,35.70
2017-08-07T08:33:09.106Z,35.10
2017-08-07T08:35:36.637Z,35.40
2017-08-07T08:38:04.197Z,34.10
2017-08-07T08:40:32.554Z,34.40
2017-08-07T08:43:00.948Z,35.40
2017-08-07T08:45:29.265Z,34.60
2017-08-07T08:47:56.811Z,34.50
2017-08-07T08:50:25.149Z,34.80
2017-08-07T08:52:52.693Z,34.80
2017-08-07T08:55:20.270Z,34.10
2017-08-07T08:57:47.797Z,32.60
2017-08-07T09:00:16.158Z,32.30
2017-08-07T09:02:44.462Z,33.00
2017-08-07T09:05:12.013Z,32.30
2017-08-07T09:07:40.322Z,33.00
2017-08-07T09:10:07.896Z,33.10
2017-08-07T09:12:35.463Z,31.50
2017-08-07T09:15:03.041Z,31.80
2017-08-07T09:17:30.573Z,32.40
2017-08-07T09:19:58.128Z,30.40
2017-08-07T09:22:25.733Z,29.20
2017-08-07T09:24:53.289Z,27.80
2017-08-07T09:27:21.666Z,27.10
2017-08-07T09:29:49.217Z,27.20
2017-08-07T09:32:16.768Z,26.90
2017-08-07T09:34:44.330Z,26.00
2017-08-07T09:37:12.725Z,25.10
2017-08-07T09:39:41.032Z,25.00
2017-08-07T09:42:08.590Z,25.00
2017-08-07T09:44:36.150Z,24.90
2017-08-07T09:47:04.610Z,24.40
2017-08-07T09:49:32.904Z,24.40
2017-08-07T09:52:00.457Z,24.40
2017-08-07T09:54:28.798Z,23.90
2017-08-07T09:56:56.336Z,23.90
2017-08-07T09:59:24.013Z,23.80
2017-08-07T10:01:51.582Z,23.70
2017-08-07T10:04:21.034Z,22.60
2017-08-07T10:06:48.576Z,22.70
2017-08-07T10:09:16.487Z,22.80
2017-08-07T10:11:44.826Z,22.10
2017-08-07T10:14:12.376Z,22.20
2017-08-07T10:16:40.044Z,23.90
2017-08-07T10:19:08.595Z,24.40
2017-08-07T10:21:36.186Z,24.00
2017-08-07T10:24:03.748Z,23.70
2017-08-07T10:26:31.319Z,23.10
2017-08-07T10:28:58.867Z,22.70
2017-08-07T10:31:26.431Z,24.40
2017-08-07T10:33:54.011Z,23.70
2017-08-07T10:36:21.581Z,22.70
2017-08-07T10:38:49.165Z,22.10
2017-08-07T10:41:16.714Z,22.90
2017-08-07T10:43:44.293Z,21.40
2017-08-07T10:46:11.832Z,20.60
2017-08-07T10:48:39.470Z,19.40
2017-08-07T10:51:07.787Z,19.50
2017-08-07T10:53:35.883Z,19.60
2017-08-07T10:56:03.417Z,18.30
2017-08-07T10:58:30.978Z,20.20
2017-08-07T11:00:58.544Z,20.20
2017-08-07T11:03:26.149Z,20.40
2017-08-07T11:05:53.714Z,21.80
2017-08-07T11:08:21.324Z,21.30
2017-08-07T11:10:48.858Z,21.70
2017-08-07T11:13:16.954Z,19.30
2017-08-07T11:15:44.504Z,17.90
2017-08-07T11:18:12.037Z,17.70
2017-08-07T11:20:39.612Z,18.50
2017-08-07T11:23:07.184Z,18.30
2017-08-07T11:25:34.745Z,17.80
2017-08-07T11:28:02.311Z,17.70
2017-08-07T11:30:33.944Z,18.20
2017-08-07T11:33:01.819Z,17.30
2017-08-07T11:35:29.523Z,17.00
2017-08-07T11:37:57.083Z,16.50
2017-08-07T11:40:25.461Z,18.50
2017-08-07T11:42:53.002Z,18.30
2017-08-07T11:45:20.580Z,20.30
2017-08-07T11:47:48.160Z,17.10
2017-08-07T11:50:15.709Z,17.10
2017-08-07T11:52:43.290Z,16.30
2017-08-07T11:55:11.002Z,15.90
2017-08-07T11:57:38.550Z,16.10
2017-08-07T12:00:06.836Z,15.50
2017-08-07T12:02:35.222Z,14.80
2017-08-07T12:05:03.523Z,16.10
2017-08-07T12:07:31.081Z,16.10
2017-08-07T12:09:58.614Z,18.10
2017-08-07T12:12:26.170Z,19.30
2017-08-07T12:14:53.720Z,19.10
2017-08-07T12:17:21.441Z,19.30
2017-08-07T12:19:50.538Z,19.90
2017-08-07T12:22:18.082Z,18.60
2017-08-07T12:24:46.480Z,18.90
2017-08-07T12:27:14.826Z,17.80
2017-08-07T12:29:42.409Z,17.70
2017-08-07T12:32:10.727Z,17.70
2017-08-07T12:34:38.933Z,17.80
2017-08-07T12:37:06.458Z,16.90
2017-08-07T12:39:34.028Z,16.00
2017-08-07T12:42:01.562Z,15.40
2017-08-07T12:44:29.911Z,15.40
2017-08-07T12:46:58.182Z,15.40
2017-08-07T12:49:25.749Z,16.20
2017-08-07T12:51:53.312Z,16.50
2017-08-07T12:54:20.895Z,16.60
2017-08-07T12:56:48.523Z,17.70
2017-08-07T12:59:16.075Z,17.60
2017-08-07T13:01:45.329Z,18.70
2017-08-07T13:04:12.872Z,18.80
2017-08-07T13:06:40.447Z,17.10
2017-08-07T13:09:09.242Z,17.50
2017-08-07T13:11:36.906Z,16.20
2017-08-07T13:14:04.440Z,16.70
2017-08-07T13:16:32.027Z,17.50
2017-08-07T13:18:59.568Z,19.60
2017-08-07T13:21:27.131Z,15.70
2017-08-07T13:23:54.673Z,16.80
2017-08-07T13:26:23.033Z,17.00
2017-08-07T13:28:50.569Z,16.90
2017-08-07T13:31:18.131Z,16.90
2017-08-07T13:33:45.726Z,15.90
2017-08-07T13:36:13.274Z,16.40
2017-08-07T13:38:40.845Z,16.60
2017-08-07T13:41:08.386Z,16.90
2017-08-07T13:43:35.945Z,17.80
2017-08-07T13:46:03.489Z,17.30
2017-08-07T13:48:31.911Z,16.60
2017-08-07T13:50:59.443Z,16.60
2017-08-07T13:53:27.049Z,15.20
2017-08-07T13:55:54.615Z,16.40
2017-08-07T13:58:22.180Z,15.60
2017-08-07T14:00:49.797Z,15.60
2017-08-07T14:03:18.118Z,17.20
2017-08-07T14:05:45.697Z,17.20
2017-08-07T14:08:13.227Z,18.60
2017-08-07T14:10:40.772Z,18.20
2017-08-07T14:13:09.076Z,16.80
2017-08-07T14:15:36.630Z,16.70
2017-08-07T14:18:04.197Z,17.30
2017-08-07T14:20:31.759Z,15.10
2017-08-07T14:22:59.301Z,16.20
2017-08-07T14:25:27.632Z,16.60
2017-08-07T14:27:55.177Z,16.60
2017-08-07T14:30:26.641Z,16.00
2017-08-07T14:32:56.170Z,17.60
2017-08-07T14:35:23.706Z,18.50
2017-08-07T14:37:51.266Z,18.80
2017-08-07T14:40:18.809Z,17.80
2017-08-07T14:42:47.149Z,18.50
2017-08-07T14:45:14.809Z,18.40
2017-08-07T14:47:42.424Z,19.40
2017-08-07T14:50:10.743Z,18.80
2017-08-07T14:52:38.312Z,18.80
2017-08-07T14:55:05.875Z,19.20
2017-08-07T14:57:33.441Z,18.70
2017-08-07T15:00:00.981Z,18.80
2017-08-07T15:02:28.574Z,18.00
2017-08-07T15:04:56.163Z,18.00
2017-08-07T15:07:23.730Z,18.10
2017-08-07T15:09:51.289Z,18.10
2017-08-07T15:12:18.897Z,18.90
2017-08-07T15:14:47.216Z,18.10
2017-08-07T15:17:14.763Z,18.10
2017-08-07T15:19:42.333Z,18.50
2017-08-07T15:22:09.884Z,17.90
2017-08-07T15:24:38.209Z,17.80
2017-08-07T15:27:05.758Z,17.70
2017-08-07T15:29:33.327Z,18.40
2017-08-07T15:32:00.887Z,19.40
2017-08-07T15:34:28.457Z,20.60
2017-08-07T15:36:56.015Z,20.60
2017-08-07T15:39:23.610Z,20.90
2017-08-07T15:41:51.156Z,21.40
2017-08-07T15:44:19.712Z,21.30
2017-08-07T15:46:47.294Z,21.10
2017-08-07T15:49:14.832Z,21.10
2017-08-07T15:51:42.422Z,20.70
2017-08-07T15:54:09.950Z,20.50
2017-08-07T15:56:38.286Z,20.40
2017-08-07T15:59:05.825Z,20.40
2017-08-07T16:01:33.368Z,20.90
2017-08-07T16:04:01.691Z,21.60
2017-08-07T16:06:29.229Z,21.60
2017-08-07T16:08:56.800Z,21.60
2017-08-07T16:11:24.354Z,21.10
2017-08-07T16:13:51.914Z,21.50
2017-08-07T16:16:19.438Z,21.40
2017-08-07T16:18:47.043Z,22.30
2017-08-07T16:21:14.648Z,22.10
2017-08-07T16:23:42.173Z,22.60
2017-08-07T16:26:10.500Z,21.30
2017-08-07T16:28:38.037Z,21.30
2017-08-07T16:31:05.607Z,21.30
2017-08-07T16:33:33.162Z,22.00
2017-08-07T16:36:00.729Z,22.10
2017-08-07T16:38:29.458Z,22.10
2017-08-07T16:40:57.066Z,22.70
2017-08-07T16:43:25.410Z,22.80
2017-08-07T16:45:52.970Z,22.80
2017-08-07T16:48:20.509Z,22.90
2017-08-07T16:50:48.061Z,22.80
2017-08-07T16:53:15.630Z,23.10
2017-08-07T16:55:43.174Z,23.40
2017-08-07T16:58:14.489Z,23.30
2017-08-07T17:00:45.532Z,23.20
2017-08-07T17:03:14.706Z,23.40
2017-08-07T17:05:42.234Z,23.40
2017-08-07T17:08:09.998Z,23.60
2017-08-07T17:10:38.326Z,24.30
2017-08-07T17:13:05.896Z,24.20
2017-08-07T17:15:33.640Z,24.60
2017-08-07T17:18:02.147Z,24.70
2017-08-07T17:20:29.695Z,24.90
2017-08-07T17:22:57.243Z,25.70
2017-08-07T17:25:24.814Z,25.50
2017-08-07T17:27:52.483Z,25.40
2017-08-07T17:30:20.047Z,25.60
2017-08-07T17:32:47.587Z,25.10
2017-08-07T17:35:15.937Z,25.60
2017-08-07T17:37:43.482Z,25.60
2017-08-07T17:40:11.057Z,25.60
2017-08-07T17:42:38.609Z,25.80
2017-08-07T17:45:06.168Z,25.90
2017-08-07T17:47:33.705Z,26.10
2017-08-07T17:50:02.053Z,26.60
2017-08-07T17:52:29.589Z,26.60
2017-08-07T17:54:57.457Z,27.10
2017-08-07T17:57:25.029Z,27.00
2017-08-07T17:59:52.594Z,27.00
2017-08-07T18:02:20.178Z,26.90
2017-08-07T18:04:47.749Z,27.10
2017-08-07T18:07:15.313Z,27.40
2017-08-07T18:09:43.063Z,28.00
2017-08-07T18:12:10.781Z,28.00
2017-08-07T18:14:38.331Z,28.50
2017-08-07T18:17:05.914Z,29.10
2017-08-07T18:19:34.207Z,30.00
2017-08-07T18:22:01.835Z,30.00
2017-08-07T18:24:29.384Z,30.60
2017-08-07T18:26:56.969Z,31.90
2017-08-07T18:29:25.289Z,32.10
2017-08-07T18:31:52.836Z,32.10
2017-08-07T18:34:21.550Z,33.70
2017-08-07T18:36:49.095Z,33.70
2017-08-07T18:39:16.646Z,33.90
2017-08-07T18:41:44.174Z,33.90
2017-08-07T18:44:11.753Z,34.90
2017-08-07T18:46:39.313Z,35.30
2017-08-07T18:49:06.867Z,36.00
2017-08-07T18:51:35.122Z,36.10
2017-08-07T18:54:02.748Z,36.50
2017-08-07T18:56:31.074Z,37.80
2017-08-07T18:59:00.710Z,38.00
2017-08-07T19:01:28.341Z,38.10
2017-08-07T19:03:55.881Z,38.60
2017-08-07T19:06:24.361Z,39.40
2017-08-07T19:08:51.910Z,39.40
2017-08-07T19:11:19.480Z,40.30
2017-08-07T19:13:47.057Z,40.00
2017-08-07T19:16:14.592Z,40.70
2017-08-07T19:18:42.124Z,40.60
2017-08-07T19:21:10.111Z,41.50
2017-08-07T19:23:37.687Z,41.90
2017-08-07T19:26:07.902Z,42.70
2017-08-07T19:28:35.972Z,43.40
2017-08-07T19:31:03.661Z,43.00
2017-08-07T19:33:31.202Z,43.60
2017-08-07T19:35:58.977Z,43.80
2017-08-07T19:38:27.533Z,44.20
2017-08-07T19:40:55.615Z,45.00
2017-08-07T19:43:23.185Z,44.80
2017-08-07T19:45:50.770Z,45.90
2017-08-07T19:48:19.585Z,46.10
2017-08-07T19:50:48.907Z,46.20
2017-08-07T19:53:18.692Z,46.20
2017-08-07T19:55:46.273Z,46.50
2017-08-07T19:58:14.674Z,47.50
2017-08-07T20:00:43.290Z,47.50
2017-08-07T20:03:11.032Z,47.40
2017-08-07T20:05:38.615Z,48.20
2017-08-07T20:08:07.046Z,48.50
2017-08-07T20:10:34.764Z,48.40
2017-08-07T20:13:02.938Z,49.30
2017-08-07T20:15:31.993Z,50.10
2017-08-07T20:17:59.934Z,50.10
2017-08-07T20:20:33.340Z,50.10
2017-08-07T20:23:00.880Z,50.10
2017-08-07T20:25:29.290Z,50.90
2017-08-07T20:27:58.262Z,52.00
2017-08-07T20:30:25.859Z,51.20
2017-08-07T20:32:56.256Z,51.30
2017-08-07T20:35:25.590Z,51.80
2017-08-07T20:37:53.193Z,51.80
2017-08-07T20:40:20.877Z,52.90
2017-08-07T20:42:49.030Z,52.90
2017-08-07T20:45:16.629Z,52.90
2017-08-07T20:47:44.205Z,53.60
2017-08-07T20:50:12.514Z,54.00
2017-08-07T20:52:44.447Z,54.00
2017-08-07T20:55:13.021Z,53.90
2017-08-07T20:57:41.372Z,54.00
2017-08-07T21:00:08.926Z,54.50
2017-08-07T21:02:36.460Z,54.70
2017-08-07T21:05:05.267Z,55.50
2017-08-07T21:07:33.347Z,56.10
2017-08-07T21:10:01.383Z,55.80
2017-08-07T21:12:28.919Z,56.60
2017-08-07T21:14:57.255Z,56.60
2017-08-07T21:17:27.538Z,56.90
2017-08-07T21:19:55.413Z,57.00
2017-08-07T21:22:22.958Z,56.90
2017-08-07T21:24:50.547Z,57.00
2017-08-07T21:27:19.430Z,58.00
2017-08-07T21:29:46.992Z,58.10
2017-08-07T21:32:15.361Z,58.10
2017-08-07T21:34:42.941Z,59.10
2017-08-07T21:37:13.412Z,59.40
2017-08-07T21:39:42.679Z,59.50
2017-08-07T21:42:10.235Z,59.40
2017-08-07T21:44:37.785Z,60.10
2017-08-07T21:47:06.221Z,60.70
2017-08-07T21:49:33.768Z,61.00
2017-08-07T21:52:01.344Z,61.40
2017-08-07T21:54:28.885Z,61.50
2017-08-07T21:56:59.728Z,62.30
2017-08-07T21:59:28.140Z,62.70
2017-08-07T22:01:58.762Z,62.20
2017-08-07T22:04:26.319Z,62.30
2017-08-07T22:06:53.910Z,62.30
2017-08-07T22:09:22.094Z,62.30
2017-08-07T22:11:50.896Z,62.30
2017-08-07T22:14:18.438Z,62.30
2017-08-07T22:16:45.972Z,62.90
2017-08-07T22:19:14.318Z,62.10
2017-08-07T22:21:41.854Z,62.10
2017-08-07T22:24:09.451Z,63.00
2017-08-07T22:26:37.373Z,63.60
2017-08-07T22:29:05.496Z,64.30
2017-08-07T22:31:33.874Z,64.80
2017-08-07T22:34:01.436Z,65.20
2017-08-07T22:36:29.036Z,66.00
2017-08-07T22:38:56.769Z,66.60
2017-08-07T22:41:25.899Z,66.30
2017-08-07T22:43:54.025Z,67.40
2017-08-07T22:46:29.566Z,67.50
2017-08-07T22:48:59.062Z,68.20
2017-08-07T22:51:31.208Z,68.10
2017-08-07T22:54:02.945Z,68.50
2017-08-07T22:56:30.669Z,68.60
2017-08-07T22:59:13.342Z,68.70
2017-08-07T23:01:46.964Z,69.70
2017-08-07T23:04:26.472Z,71.00
2017-08-07T23:06:56.858Z,71.60
2017-08-07T23:17:23.234Z,73.20
2017-08-07T23:23:36.202Z,74.40
2017-08-07T23:26:03.793Z,74.20
2017-08-07T23:28:31.480Z,75.40
2017-08-07T23:31:00.531Z,75.00
2017-08-07T23:33:31.382Z,74.60
2017-08-07T23:36:16.152Z,75.20
2017-08-07T23:41:25.438Z,75.10
2017-08-07T23:43:53.199Z,75.60
2017-08-07T23:46:24.619Z,75.30
2017-08-07T23:48:52.205Z,75.80
2017-08-07T23:51:24.017Z,76.40
2017-08-07T23:53:53.633Z,76.20
2017-08-07T23:58:59.053Z,77.20
